الصفحة الرئيسية
METAR-TAF:

METAR-TAF

مطار :

كالغاري, ألبرتا, كندا

دائرة عرض: 51-07N, خط طول: 114-01W, ارتفاع: 1077 متر

مراقبة الطقس الحالي

تاريخ ووقت الإصدار 1ساعة و 3 دقيقة قبل الساعة 03:00UTC
ريح 6 عقدة من الجنوب
درجة الحرارة 6°درجة مئوية
الرطوبة 52%
ضغط 1018 hPa
الرؤية: 24.1 كم
غيوم قليلة على ارتفاع 15000 قدم

METAR: CYYC 230300Z 17006KT 15SM FEW150 06/M03 A3005 RMK AC1 AC TR SLP215

زمن: 22:03 (04:03 UTC)

توقعات

تاريخ ووقت الإصدار 1ساعة و 25 دقيقة قبل الساعة 02:38UTC
التوقعات صالحة من23 الساعة 03 UTC إلى 23 الساعة 24 UTC
ريح 8 عقدة من الجنوب/الجنوب الشرقي
الرؤية: 10 كم
سماء صافية
أصبح
من 23 الساعة 10 UTC إلى 23 الساعة 12 UTC
ريح 5 عقدة من الجنوب/الجنوب الغربي
أصبح
من 23 الساعة 18 UTC إلى 23 الساعة 20 UTC
ريح 5 عقدة من الجنوب الشرقي

TAF: CYYC 230238Z 2303/2324 15008KT P6SM SKC BECMG 2310/2312 20005KT BECMG 2318/2320 13005KT RMK NXT FCST BY 230600Z

أرصاد الطقس والتوقعات من أكثر من 4000 مطار (تقارير الطقس للمطار METAR والتنبؤ بالطقس بالمطارTAF).

المحطات المتاحة هي النقط الصفراء والحمراء على الخريطة.

حرك المؤشر فوق النقطة لمعرفة اسم المحطة.

ثم انقر لمعرفة أرصاد وتوقعات الطقس.

لتغيير الخارطة: اضغط على الأزرار الخضراء مع رمز الصليب الأسود للتكبير. على الزر الأخضر مع شرطة للتصغير، أو على الأسهم الخضراء للخرائط المجاورة.


METAR-TAF: